createdAt,value
2017-06-15T00:00:48.841Z,956.32
2017-06-15T00:01:48.729Z,956.29
2017-06-15T00:02:48.710Z,956.3
2017-06-15T00:03:48.703Z,956.32
2017-06-15T00:04:48.697Z,956.3
2017-06-15T00:05:48.690Z,956.31
2017-06-15T00:06:48.822Z,956.32
2017-06-15T00:07:48.792Z,956.32
2017-06-15T00:08:48.686Z,956.32
2017-06-15T00:09:48.986Z,956.31
2017-06-15T00:10:48.816Z,956.32
2017-06-15T00:11:48.647Z,956.28
2017-06-15T00:12:48.640Z,956.28
2017-06-15T00:13:48.633Z,956.29
2017-06-15T00:14:48.627Z,956.31
2017-06-15T00:15:48.618Z,956.31
2017-06-15T00:16:48.612Z,956.3
2017-06-15T00:17:48.608Z,956.29
2017-06-15T00:18:48.599Z,956.31
2017-06-15T00:19:48.593Z,956.28
2017-06-15T00:20:48.584Z,956.26
2017-06-15T00:21:48.578Z,956.3
2017-06-15T00:22:48.736Z,956.28
2017-06-15T00:23:48.707Z,956.28
2017-06-15T00:24:48.566Z,956.27
2017-06-15T00:25:48.569Z,956.27
2017-06-15T00:26:48.544Z,956.29
2017-06-15T00:27:48.536Z,956.27
2017-06-15T00:28:48.529Z,956.25
2017-06-15T00:29:48.521Z,956.25
2017-06-15T00:30:48.638Z,956.22
2017-06-15T00:31:48.620Z,956.26
2017-06-15T00:32:48.501Z,956.31
2017-06-15T00:33:48.492Z,956.28
2017-06-15T00:34:48.488Z,956.31
2017-06-15T00:35:48.484Z,956.28
2017-06-15T00:36:48.471Z,956.31
2017-06-15T00:37:48.590Z,956.24
2017-06-15T00:38:48.456Z,956.31
2017-06-15T00:39:48.458Z,956.29
2017-06-15T00:40:48.579Z,956.29
2017-06-15T00:41:48.514Z,956.31
2017-06-15T00:42:48.429Z,956.29
2017-06-15T00:43:48.424Z,956.34
2017-06-15T00:44:48.414Z,956.33
2017-06-15T00:45:48.407Z,956.37
2017-06-15T00:46:48.427Z,956.31
2017-06-15T00:47:48.551Z,956.36
2017-06-15T00:48:48.508Z,956.36
2017-06-15T00:49:48.378Z,956.33
2017-06-15T00:50:48.371Z,956.35
2017-06-15T00:51:48.364Z,956.35
2017-06-15T00:52:48.486Z,956.33
2017-06-15T00:53:48.348Z,956.34
2017-06-15T00:54:48.453Z,956.39
2017-06-15T00:55:48.449Z,956.34
2017-06-15T00:56:48.486Z,956.36
2017-06-15T00:57:48.320Z,956.38
2017-06-15T00:58:48.312Z,956.34
2017-06-15T00:59:48.304Z,956.36
2017-06-15T01:00:48.314Z,956.33
2017-06-15T01:01:48.293Z,956.31
2017-06-15T01:02:48.283Z,956.34
2017-06-15T01:03:48.275Z,956.38
2017-06-15T01:04:48.268Z,956.33
2017-06-15T01:05:48.402Z,956.33
2017-06-15T01:06:48.365Z,956.33
2017-06-15T01:07:48.246Z,956.36
2017-06-15T01:08:48.259Z,956.3
2017-06-15T01:09:48.245Z,956.32
2017-06-15T01:10:48.367Z,956.34
2017-06-15T01:11:48.215Z,956.32
2017-06-15T01:12:48.207Z,956.31
2017-06-15T01:13:48.201Z,956.35
2017-06-15T01:14:48.191Z,956.29
2017-06-15T01:15:48.446Z,956.31
2017-06-15T01:16:48.178Z,956.33
2017-06-15T01:17:48.170Z,956.35
2017-06-15T01:18:48.163Z,956.31
2017-06-15T01:19:48.156Z,956.27
2017-06-15T01:20:48.148Z,956.31
2017-06-15T01:21:48.387Z,956.32
2017-06-15T01:22:48.258Z,956.29
2017-06-15T01:23:48.257Z,956.33
2017-06-15T01:24:48.117Z,956.32
2017-06-15T01:25:48.109Z,956.3
2017-06-15T01:26:48.119Z,956.32
2017-06-15T01:27:48.356Z,956.28
2017-06-15T01:28:48.087Z,956.28
2017-06-15T01:29:48.080Z,956.32
2017-06-15T01:30:48.072Z,956.27
2017-06-15T01:31:48.165Z,956.24
2017-06-15T01:32:48.056Z,956.25
2017-06-15T01:33:48.052Z,956.21
2017-06-15T01:34:48.042Z,956.23
2017-06-15T01:35:48.034Z,956.22
2017-06-15T01:36:48.154Z,956.21
2017-06-15T01:37:48.164Z,956.22
2017-06-15T01:38:48.140Z,956.24
2017-06-15T01:39:48.002Z,956.19
2017-06-15T01:40:48.009Z,956.16
2017-06-15T01:41:48.008Z,956.16
2017-06-15T01:42:47.981Z,956.18
2017-06-15T01:43:48.134Z,956.18
2017-06-15T01:44:47.985Z,956.19
2017-06-15T01:45:47.971Z,956.19
2017-06-15T01:46:47.948Z,956.15
2017-06-15T01:47:48.056Z,956.19
2017-06-15T01:48:47.945Z,956.16
2017-06-15T01:49:47.926Z,956.15
2017-06-15T01:50:47.916Z,956.13
2017-06-15T01:51:47.910Z,956.16
2017-06-15T01:52:48.019Z,956.15
2017-06-15T01:53:47.918Z,956.12
2017-06-15T01:54:47.906Z,956.16
2017-06-15T01:55:47.889Z,956.1
2017-06-15T01:56:47.874Z,956.03
2017-06-15T01:57:47.945Z,956.09
2017-06-15T01:58:47.855Z,956.07
2017-06-15T01:59:47.847Z,956.07
2017-06-15T02:00:48.040Z,956.02
2017-06-15T02:01:47.830Z,956.03
2017-06-15T02:02:47.835Z,956.03
2017-06-15T02:03:47.816Z,956.04
2017-06-15T02:04:47.808Z,956.02
2017-06-15T02:05:47.805Z,955.98
2017-06-15T02:06:48.094Z,956.02
2017-06-15T02:07:47.784Z,955.99
2017-06-15T02:08:47.813Z,955.98
2017-06-15T02:09:47.770Z,955.99
2017-06-15T02:10:47.761Z,955.97
2017-06-15T02:11:47.760Z,955.97
2017-06-15T02:12:47.821Z,956.01
2017-06-15T02:13:47.769Z,955.96
2017-06-15T02:14:47.829Z,956.02
2017-06-15T02:15:47.722Z,956.04
2017-06-15T02:16:47.713Z,956.01
2017-06-15T02:17:47.706Z,956
2017-06-15T02:18:47.697Z,955.97
2017-06-15T02:19:47.738Z,955.96
2017-06-15T02:20:47.683Z,955.99
2017-06-15T02:21:47.673Z,956
2017-06-15T02:22:47.666Z,955.99
2017-06-15T02:23:47.658Z,955.99
2017-06-15T02:24:47.650Z,956.08
2017-06-15T02:25:47.665Z,956.01
2017-06-15T02:26:47.635Z,955.99
2017-06-15T02:27:47.627Z,955.98
2017-06-15T02:28:47.619Z,956.04
2017-06-15T02:29:47.729Z,955.96
2017-06-15T02:30:47.603Z,955.97
2017-06-15T02:31:47.595Z,955.98
2017-06-15T02:32:47.586Z,955.96
2017-06-15T02:33:47.579Z,956.01
2017-06-15T02:34:47.691Z,955.97
2017-06-15T02:35:47.687Z,955.96
2017-06-15T02:36:47.777Z,955.98
2017-06-15T02:37:47.547Z,956
2017-06-15T02:38:47.538Z,956.03
2017-06-15T02:39:47.655Z,955.99
2017-06-15T02:40:47.523Z,956.02
2017-06-15T02:41:47.513Z,956
2017-06-15T02:42:47.507Z,956
2017-06-15T02:43:47.499Z,955.98
2017-06-15T02:44:47.636Z,955.99
2017-06-15T02:45:47.643Z,955.97
2017-06-15T02:46:47.476Z,955.96
2017-06-15T02:47:47.467Z,955.98
2017-06-15T02:48:47.459Z,955.99
2017-06-15T02:49:47.615Z,955.99
2017-06-15T02:50:47.443Z,956
2017-06-15T02:51:47.433Z,956.01
2017-06-15T02:52:47.425Z,955.99
2017-06-15T02:53:47.418Z,955.98
2017-06-15T02:54:47.518Z,956
2017-06-15T02:55:47.545Z,955.97
2017-06-15T02:56:47.391Z,955.97
2017-06-15T02:57:47.385Z,956.01
2017-06-15T02:58:47.525Z,956.02
2017-06-15T02:59:47.411Z,956.07
2017-06-15T03:00:47.425Z,956.03
2017-06-15T03:01:47.355Z,956
2017-06-15T03:02:47.444Z,956
2017-06-15T03:03:47.377Z,956.07
2017-06-15T03:04:47.329Z,956.03
2017-06-15T03:05:47.321Z,956.02
2017-06-15T03:06:47.312Z,956.01
2017-06-15T03:07:47.375Z,955.99
2017-06-15T03:08:47.411Z,955.97
2017-06-15T03:09:47.388Z,956
2017-06-15T03:10:47.385Z,955.99
2017-06-15T03:11:47.329Z,956.01
2017-06-15T03:12:47.263Z,955.99
2017-06-15T03:13:47.256Z,956.01
2017-06-15T03:14:47.353Z,955.97
2017-06-15T03:15:47.314Z,955.96
2017-06-15T03:16:47.230Z,955.99
2017-06-15T03:17:47.313Z,955.97
2017-06-15T03:18:47.479Z,955.94
2017-06-15T03:19:47.206Z,955.93
2017-06-15T03:20:47.198Z,955.94
2017-06-15T03:21:47.189Z,955.94
2017-06-15T03:22:47.182Z,955.91
2017-06-15T03:23:47.204Z,955.95
2017-06-15T03:24:47.445Z,955.94
2017-06-15T03:25:47.155Z,955.96
2017-06-15T03:26:47.148Z,955.94
2017-06-15T03:27:47.141Z,955.95
2017-06-15T03:28:47.133Z,955.92
2017-06-15T03:29:47.123Z,955.97
2017-06-15T03:30:47.122Z,955.95
2017-06-15T03:31:47.107Z,955.96
2017-06-15T03:32:47.098Z,955.94
2017-06-15T03:33:47.096Z,955.96
2017-06-15T03:34:47.084Z,955.98
2017-06-15T03:35:47.153Z,956
2017-06-15T03:36:47.186Z,955.99
2017-06-15T03:37:47.058Z,956.01
2017-06-15T03:38:47.172Z,955.97
2017-06-15T03:39:47.043Z,955.97
2017-06-15T03:40:47.033Z,955.95
2017-06-15T03:41:47.026Z,955.92
2017-06-15T03:42:47.017Z,955.96
2017-06-15T03:43:47.166Z,955.98
2017-06-15T03:44:47.058Z,955.94
2017-06-15T03:45:46.993Z,955.97
2017-06-15T03:46:46.984Z,955.95
2017-06-15T03:47:46.976Z,955.96
2017-06-15T03:48:46.969Z,955.95
2017-06-15T03:49:46.961Z,955.99
2017-06-15T03:50:47.231Z,955.95
2017-06-15T03:51:47.064Z,955.91
2017-06-15T03:52:46.956Z,955.94
2017-06-15T03:53:46.929Z,955.94
2017-06-15T03:54:46.920Z,955.98
2017-06-15T03:55:46.916Z,955.94
2017-06-15T03:56:46.905Z,955.93
2017-06-15T03:57:47.041Z,955.9
2017-06-15T03:58:47.011Z,955.91
2017-06-15T03:59:47.039Z,955.89
2017-06-15T04:00:46.873Z,955.89
2017-06-15T04:01:46.865Z,955.95
2017-06-15T04:02:46.855Z,955.9
2017-06-15T04:03:46.947Z,955.88
2017-06-15T04:04:46.965Z,955.9
2017-06-15T04:05:46.932Z,955.9
2017-06-15T04:06:46.824Z,955.88
2017-06-15T04:07:46.817Z,955.91
2017-06-15T04:08:46.810Z,955.91
2017-06-15T04:09:46.802Z,955.87
2017-06-15T04:10:46.914Z,955.86
2017-06-15T04:11:47.028Z,955.82
2017-06-15T04:12:46.778Z,955.79
2017-06-15T04:13:46.771Z,955.8
2017-06-15T04:14:46.782Z,955.8
2017-06-15T04:15:46.755Z,955.73
2017-06-15T04:16:46.870Z,955.71
2017-06-15T04:17:46.873Z,955.72
2017-06-15T04:18:46.733Z,955.73
2017-06-15T04:19:46.726Z,955.73
2017-06-15T04:20:46.717Z,955.72
2017-06-15T04:21:46.711Z,955.77
2017-06-15T04:22:46.702Z,955.74
2017-06-15T04:23:46.696Z,955.72
2017-06-15T04:24:46.720Z,955.72
2017-06-15T04:25:46.995Z,955.7
2017-06-15T04:26:46.808Z,955.69
2017-06-15T04:27:46.665Z,955.67
2017-06-15T04:28:46.657Z,955.68
2017-06-15T04:29:46.669Z,955.66
2017-06-15T04:30:46.644Z,955.68
2017-06-15T04:31:46.856Z,955.66
2017-06-15T04:32:46.769Z,955.63
2017-06-15T04:33:46.623Z,955.64
2017-06-15T04:34:46.615Z,955.61
2017-06-15T04:35:46.638Z,955.66
2017-06-15T04:36:46.609Z,955.67
2017-06-15T04:37:46.881Z,955.71
2017-06-15T04:38:46.586Z,955.7
2017-06-15T04:39:46.580Z,955.72
2017-06-15T04:40:46.574Z,955.67
2017-06-15T04:41:46.568Z,955.69
2017-06-15T04:42:46.559Z,955.67
2017-06-15T04:43:46.755Z,955.65
2017-06-15T04:44:46.674Z,955.67
2017-06-15T04:45:46.540Z,955.65
2017-06-15T04:46:46.533Z,955.64
2017-06-15T04:47:46.586Z,955.59
2017-06-15T04:48:46.531Z,955.6
2017-06-15T04:49:46.513Z,955.6
2017-06-15T04:50:46.507Z,955.61
2017-06-15T04:51:46.500Z,955.63
2017-06-15T04:52:46.511Z,955.66
2017-06-15T04:53:46.638Z,955.67
2017-06-15T04:54:46.606Z,955.65
2017-06-15T04:55:46.478Z,955.66
2017-06-15T04:56:46.469Z,955.68
2017-06-15T04:57:46.472Z,955.67
2017-06-15T04:58:46.457Z,955.68
2017-06-15T04:59:46.597Z,955.67
2017-06-15T05:00:46.446Z,955.6
2017-06-15T05:01:46.440Z,955.65
2017-06-15T05:02:46.434Z,955.68
2017-06-15T05:03:46.430Z,955.67
2017-06-15T05:04:46.579Z,955.7
2017-06-15T05:05:46.567Z,955.71
2017-06-15T05:06:46.413Z,955.72
2017-06-15T05:07:46.406Z,955.72
2017-06-15T05:08:46.400Z,955.71
2017-06-15T05:09:46.408Z,955.73
2017-06-15T05:10:46.406Z,955.71
2017-06-15T05:11:46.505Z,955.7
2017-06-15T05:12:46.380Z,955.73
2017-06-15T05:13:46.527Z,955.77
2017-06-15T05:14:46.367Z,955.75
2017-06-15T05:15:46.383Z,955.77
2017-06-15T05:16:46.358Z,955.78
2017-06-15T05:17:46.667Z,955.79
2017-06-15T05:18:46.460Z,955.79
2017-06-15T05:19:46.359Z,955.73
2017-06-15T05:20:46.338Z,955.73
2017-06-15T05:21:46.334Z,955.78
2017-06-15T05:22:46.328Z,955.81
2017-06-15T05:23:46.324Z,955.78
2017-06-15T05:24:46.465Z,955.76
2017-06-15T05:25:46.471Z,955.78
2017-06-15T05:26:46.309Z,955.78
2017-06-15T05:27:46.305Z,955.74
2017-06-15T05:28:46.301Z,955.78
2017-06-15T05:29:46.296Z,955.74
2017-06-15T05:30:46.292Z,955.72
2017-06-15T05:31:46.288Z,955.73
2017-06-15T05:32:46.283Z,955.77
2017-06-15T05:33:46.278Z,955.82
2017-06-15T05:34:46.383Z,955.8
2017-06-15T05:35:46.499Z,955.75
2017-06-15T05:36:46.266Z,955.74
2017-06-15T05:37:46.262Z,955.7
2017-06-15T05:38:46.258Z,955.69
2017-06-15T05:39:46.254Z,955.69
2017-06-15T05:40:46.248Z,955.66
2017-06-15T05:41:46.246Z,955.66
2017-06-15T05:42:46.243Z,955.69
2017-06-15T05:43:46.238Z,955.64
2017-06-15T05:44:46.234Z,955.63
2017-06-15T05:45:46.230Z,955.65
2017-06-15T05:46:46.228Z,955.6
2017-06-15T05:47:46.224Z,955.65
2017-06-15T05:48:46.220Z,955.64
2017-06-15T05:49:46.217Z,955.65
2017-06-15T05:50:46.214Z,955.69
2017-06-15T05:51:46.209Z,955.71
2017-06-15T05:52:46.206Z,955.66
2017-06-15T05:53:46.203Z,955.71
2017-06-15T05:54:46.273Z,955.7
2017-06-15T05:55:46.210Z,955.66
2017-06-15T05:56:46.193Z,955.68
2017-06-15T05:57:46.192Z,955.65
2017-06-15T05:58:46.188Z,955.66
2017-06-15T05:59:46.200Z,955.66
2017-06-15T06:00:46.181Z,955.65
2017-06-15T06:01:46.178Z,955.67
2017-06-15T06:02:46.173Z,955.71
2017-06-15T06:03:46.172Z,955.62
2017-06-15T06:04:46.218Z,955.66
2017-06-15T06:05:46.166Z,955.66
2017-06-15T06:06:46.163Z,955.62
2017-06-15T06:07:46.161Z,955.65
2017-06-15T06:08:46.157Z,955.66
2017-06-15T06:09:46.156Z,955.59
2017-06-15T06:10:46.153Z,955.6
2017-06-15T06:11:46.149Z,955.56
2017-06-15T06:12:46.147Z,955.63
2017-06-15T06:13:46.144Z,955.61
2017-06-15T06:14:46.141Z,955.6
2017-06-15T06:15:46.139Z,955.59
2017-06-15T06:16:46.138Z,955.6
2017-06-15T06:17:46.135Z,955.62
2017-06-15T06:18:46.140Z,955.63
2017-06-15T06:19:46.131Z,955.61
2017-06-15T06:20:46.127Z,955.61
2017-06-15T06:21:46.124Z,955.62
2017-06-15T06:22:46.123Z,955.58
2017-06-15T06:23:46.120Z,955.58
2017-06-15T06:24:46.118Z,955.62
2017-06-15T06:25:46.116Z,955.58
2017-06-15T06:26:46.114Z,955.6
2017-06-15T06:27:46.112Z,955.63
2017-06-15T06:28:46.108Z,955.66
2017-06-15T06:29:46.109Z,955.59
2017-06-15T06:30:46.108Z,955.63
2017-06-15T06:31:46.102Z,955.67
2017-06-15T06:32:46.104Z,955.65
2017-06-15T06:33:46.101Z,955.64
2017-06-15T06:34:46.110Z,955.68
2017-06-15T06:35:46.095Z,955.71
2017-06-15T06:36:46.108Z,955.66
2017-06-15T06:37:46.093Z,955.65
2017-06-15T06:38:46.091Z,955.73
2017-06-15T06:39:46.088Z,955.75
2017-06-15T06:40:46.089Z,955.81
2017-06-15T06:41:46.086Z,955.8
2017-06-15T06:42:46.086Z,955.8
2017-06-15T06:43:46.085Z,955.79
2017-06-15T06:44:46.085Z,955.71
2017-06-15T06:45:46.084Z,955.74
2017-06-15T06:46:46.085Z,955.75
2017-06-15T06:47:46.085Z,955.8
2017-06-15T06:48:46.087Z,955.84
2017-06-15T06:49:46.088Z,955.87
2017-06-15T06:50:46.091Z,955.83
2017-06-15T06:51:46.145Z,955.83
2017-06-15T06:52:46.096Z,955.85
2017-06-15T06:53:46.118Z,955.79
2017-06-15T06:54:46.101Z,955.8
2017-06-15T06:55:46.104Z,955.82
2017-06-15T06:56:46.107Z,955.81
2017-06-15T06:57:46.110Z,955.79
2017-06-15T06:58:46.115Z,955.78
2017-06-15T06:59:46.121Z,955.76
2017-06-15T07:00:46.126Z,955.77
2017-06-15T07:01:46.130Z,955.77
2017-06-15T07:02:46.135Z,955.78
2017-06-15T07:03:46.140Z,955.74
2017-06-15T07:04:46.145Z,955.74
2017-06-15T07:05:46.151Z,955.72
2017-06-15T07:06:46.157Z,955.72
2017-06-15T07:07:46.162Z,955.68
2017-06-15T07:08:46.168Z,955.7
2017-06-15T07:09:46.174Z,955.68
2017-06-15T07:10:46.180Z,955.64
2017-06-15T07:11:46.187Z,955.62
2017-06-15T07:12:46.193Z,955.68
2017-06-15T07:13:46.200Z,955.69
2017-06-15T07:14:46.207Z,955.65
2017-06-15T07:15:46.213Z,955.65
2017-06-15T07:16:46.219Z,955.65
2017-06-15T07:17:46.228Z,955.68
2017-06-15T07:18:46.235Z,955.78
2017-06-15T07:19:46.240Z,955.72
2017-06-15T07:20:46.249Z,955.77
2017-06-15T07:21:46.257Z,955.79
2017-06-15T07:22:46.264Z,955.73
2017-06-15T07:23:46.271Z,955.7
2017-06-15T07:24:46.297Z,955.71
2017-06-15T07:25:46.289Z,955.66
2017-06-15T07:26:46.295Z,955.71
2017-06-15T07:27:46.315Z,955.73
2017-06-15T07:28:46.312Z,955.78
2017-06-15T07:29:46.320Z,955.79
2017-06-15T07:30:46.327Z,955.73
2017-06-15T07:31:46.337Z,955.79
2017-06-15T07:32:46.343Z,955.76
2017-06-15T07:33:46.352Z,955.64
2017-06-15T07:34:46.359Z,955.61
2017-06-15T07:35:46.368Z,955.54
2017-06-15T07:36:46.377Z,955.56
2017-06-15T07:37:46.384Z,955.54
2017-06-15T07:38:46.392Z,955.55
2017-06-15T07:39:46.402Z,955.51
2017-06-15T07:40:46.410Z,955.5
2017-06-15T07:41:46.455Z,955.53
2017-06-15T07:42:46.427Z,955.5
2017-06-15T07:43:46.436Z,955.53
2017-06-15T07:44:46.444Z,955.54
2017-06-15T07:45:46.454Z,955.56
2017-06-15T07:46:46.464Z,955.54
2017-06-15T07:47:46.473Z,955.59
2017-06-15T07:48:46.480Z,955.58
2017-06-15T07:49:46.489Z,955.62
2017-06-15T07:50:46.498Z,955.63
2017-06-15T07:51:46.506Z,955.68
2017-06-15T07:52:46.514Z,955.6
2017-06-15T07:53:46.525Z,955.6
2017-06-15T07:54:46.534Z,955.58
2017-06-15T07:55:46.543Z,955.56
2017-06-15T07:56:46.552Z,955.57
2017-06-15T07:57:46.561Z,955.62
2017-06-15T07:58:46.571Z,955.59
2017-06-15T07:59:46.580Z,955.65
2017-06-15T08:00:46.589Z,955.59
2017-06-15T08:01:46.598Z,955.6
2017-06-15T08:02:46.608Z,955.61
2017-06-15T08:03:46.615Z,955.62
2017-06-15T08:04:46.625Z,955.61
2017-06-15T08:05:46.634Z,955.6
2017-06-15T08:06:46.642Z,955.63
2017-06-15T08:07:46.660Z,955.62
2017-06-15T08:08:46.660Z,955.67
2017-06-15T08:09:46.671Z,955.65
2017-06-15T08:10:46.678Z,955.59
2017-06-15T08:11:46.684Z,955.67
2017-06-15T08:12:46.699Z,955.65
2017-06-15T08:13:46.701Z,955.63
2017-06-15T08:14:46.708Z,955.64
2017-06-15T08:15:46.716Z,955.61
2017-06-15T08:16:46.724Z,955.62
2017-06-15T08:17:46.730Z,955.61
2017-06-15T08:18:46.737Z,955.59
2017-06-15T08:19:46.745Z,955.65
2017-06-15T08:20:46.753Z,955.64
2017-06-15T08:21:46.758Z,955.58
2017-06-15T08:22:46.765Z,955.66
2017-06-15T08:23:46.771Z,955.64
2017-06-15T08:24:46.777Z,955.62
2017-06-15T08:25:46.784Z,955.64
2017-06-15T08:26:46.790Z,955.64
2017-06-15T08:27:46.796Z,955.61
2017-06-15T08:28:46.802Z,955.63
2017-06-15T08:29:46.808Z,955.64
2017-06-15T08:30:46.814Z,955.65
2017-06-15T08:31:46.820Z,955.67
2017-06-15T08:32:46.825Z,955.68
2017-06-15T08:33:46.831Z,955.72
2017-06-15T08:34:46.835Z,955.68
2017-06-15T08:35:46.842Z,955.68
2017-06-15T08:36:46.845Z,955.66
2017-06-15T08:37:46.850Z,955.67
2017-06-15T08:38:46.858Z,955.66
2017-06-15T08:39:46.862Z,955.67
2017-06-15T08:40:46.868Z,955.73
2017-06-15T08:41:46.871Z,955.72
2017-06-15T08:42:46.876Z,955.68
2017-06-15T08:43:46.882Z,955.7
2017-06-15T08:44:46.885Z,955.72
2017-06-15T08:45:46.899Z,955.73
2017-06-15T08:46:46.895Z,955.77
2017-06-15T08:47:46.899Z,955.73
2017-06-15T08:48:46.905Z,955.73
2017-06-15T08:49:46.924Z,955.72
2017-06-15T08:50:46.930Z,955.69
2017-06-15T08:51:46.917Z,955.69
2017-06-15T08:52:46.923Z,955.73
2017-06-15T08:53:46.927Z,955.73
2017-06-15T08:54:46.930Z,955.69
2017-06-15T08:55:46.934Z,955.71
2017-06-15T08:56:46.940Z,955.72
2017-06-15T08:57:46.944Z,955.74
2017-06-15T08:58:46.948Z,955.74
2017-06-15T08:59:54.031Z,955.74
2017-06-15T09:00:46.957Z,955.74
2017-06-15T09:01:46.960Z,955.71
2017-06-15T09:02:46.967Z,955.69
2017-06-15T09:03:46.969Z,955.68
2017-06-15T09:04:46.975Z,955.71
2017-06-15T09:05:46.977Z,955.72
2017-06-15T09:06:46.982Z,955.73
2017-06-15T09:07:46.988Z,955.72
2017-06-15T09:08:46.991Z,955.75
2017-06-15T09:09:46.993Z,955.76
2017-06-15T09:10:46.998Z,955.79
2017-06-15T09:11:47.003Z,955.8
2017-06-15T09:12:47.006Z,955.79
2017-06-15T09:13:47.013Z,955.82
2017-06-15T09:14:47.014Z,955.75
2017-06-15T09:15:47.019Z,955.78
2017-06-15T09:16:47.023Z,955.81
2017-06-15T09:17:47.025Z,955.81
2017-06-15T09:18:47.032Z,955.81
2017-06-15T09:19:47.033Z,955.87
2017-06-15T09:20:47.038Z,955.79
2017-06-15T09:21:47.041Z,955.85
2017-06-15T09:22:47.056Z,955.85
2017-06-15T09:23:47.050Z,955.87
2017-06-15T09:24:47.054Z,955.87
2017-06-15T09:25:47.061Z,955.85
2017-06-15T09:26:47.062Z,955.9
2017-06-15T09:27:47.065Z,955.88
2017-06-15T09:28:47.067Z,955.85
2017-06-15T09:29:47.072Z,955.88
2017-06-15T09:30:47.077Z,955.85
2017-06-15T09:31:47.080Z,955.8
2017-06-15T09:32:47.084Z,955.84
2017-06-15T09:33:47.087Z,955.83
2017-06-15T09:34:47.091Z,955.79
2017-06-15T09:35:47.095Z,955.78
2017-06-15T09:36:47.098Z,955.78
2017-06-15T09:37:47.102Z,955.81
2017-06-15T09:38:47.106Z,955.78
2017-06-15T09:39:47.114Z,955.81
2017-06-15T09:40:47.114Z,955.77
2017-06-15T09:41:47.137Z,955.77
2017-06-15T09:42:47.122Z,955.78
2017-06-15T09:43:47.126Z,955.81
2017-06-15T09:44:47.131Z,955.79
2017-06-15T09:45:47.132Z,955.77
2017-06-15T09:46:47.137Z,955.74
2017-06-15T09:47:47.140Z,955.76
2017-06-15T09:48:47.145Z,955.76
2017-06-15T09:49:47.148Z,955.73
2017-06-15T09:50:47.152Z,955.75
2017-06-15T09:51:47.154Z,955.79
2017-06-15T09:52:47.159Z,955.79
2017-06-15T09:53:47.163Z,955.76
2017-06-15T09:54:47.167Z,955.73
2017-06-15T09:55:47.171Z,955.71
2017-06-15T09:56:47.173Z,955.69
2017-06-15T09:57:47.177Z,955.71
2017-06-15T09:58:47.181Z,955.71
2017-06-15T09:59:47.185Z,955.72
2017-06-15T10:00:47.188Z,955.74
2017-06-15T10:01:47.191Z,955.71
2017-06-15T10:02:47.195Z,955.7
2017-06-15T10:03:47.200Z,955.72
2017-06-15T10:04:47.203Z,955.67
2017-06-15T10:05:47.217Z,955.66
2017-06-15T10:06:47.209Z,955.65
2017-06-15T10:07:47.213Z,955.64
2017-06-15T10:08:47.217Z,955.71
2017-06-15T10:09:47.220Z,955.69
2017-06-15T10:10:47.224Z,955.67
2017-06-15T10:11:47.225Z,955.64
2017-06-15T10:12:47.231Z,955.67
2017-06-15T10:13:47.234Z,955.72
2017-06-15T10:14:47.238Z,955.66
2017-06-15T10:15:47.242Z,955.61
2017-06-15T10:16:47.245Z,955.63
2017-06-15T10:17:47.249Z,955.63
2017-06-15T10:18:47.257Z,955.57
2017-06-15T10:19:47.255Z,955.57
2017-06-15T10:20:47.258Z,955.55
2017-06-15T10:21:47.263Z,955.49
2017-06-15T10:22:47.266Z,955.51
2017-06-15T10:23:47.269Z,955.51
2017-06-15T10:24:47.275Z,955.49
2017-06-15T10:25:47.292Z,955.49
2017-06-15T10:26:47.281Z,955.5
2017-06-15T10:27:47.284Z,955.47
2017-06-15T10:28:47.289Z,955.47
2017-06-15T10:29:47.290Z,955.46
2017-06-15T10:30:47.294Z,955.47
2017-06-15T10:31:47.297Z,955.46
2017-06-15T10:32:47.302Z,955.47
2017-06-15T10:33:47.304Z,955.42
2017-06-15T10:34:47.309Z,955.49
2017-06-15T10:35:47.314Z,955.52
2017-06-15T10:36:47.315Z,955.5
2017-06-15T10:37:47.319Z,955.51
2017-06-15T10:38:47.324Z,955.46
2017-06-15T10:39:47.326Z,955.46
2017-06-15T10:40:47.380Z,955.5
2017-06-15T10:41:47.334Z,955.46
2017-06-15T10:42:47.338Z,955.51
2017-06-15T10:43:47.340Z,955.47
2017-06-15T10:44:47.344Z,955.48
2017-06-15T10:45:47.348Z,955.5
2017-06-15T10:46:47.352Z,955.46
2017-06-15T10:47:47.355Z,955.49
2017-06-15T10:48:47.358Z,955.47
2017-06-15T10:49:47.363Z,955.41
2017-06-15T10:50:47.365Z,955.41
2017-06-15T10:51:47.370Z,955.42
2017-06-15T10:52:47.373Z,955.42
2017-06-15T10:53:47.379Z,955.37
2017-06-15T10:54:47.381Z,955.42
2017-06-15T10:55:47.384Z,955.39
2017-06-15T10:56:47.390Z,955.35
2017-06-15T10:57:47.394Z,955.33
2017-06-15T10:58:47.397Z,955.32
2017-06-15T10:59:47.404Z,955.3
2017-06-15T11:00:47.405Z,955.28
2017-06-15T11:01:47.408Z,955.29
2017-06-15T11:02:47.412Z,955.28
2017-06-15T11:03:47.416Z,955.27
2017-06-15T11:04:47.420Z,955.28
2017-06-15T11:05:47.422Z,955.34
2017-06-15T11:06:47.447Z,955.29
2017-06-15T11:07:47.432Z,955.29
2017-06-15T11:08:47.450Z,955.33
2017-06-15T11:09:47.440Z,955.31
2017-06-15T11:10:47.442Z,955.31
2017-06-15T11:11:47.468Z,955.3
2017-06-15T11:12:47.450Z,955.28
2017-06-15T11:13:47.455Z,955.29
2017-06-15T11:14:47.459Z,955.26
2017-06-15T11:15:47.464Z,955.32
2017-06-15T11:16:47.467Z,955.3
2017-06-15T11:17:47.472Z,955.25
2017-06-15T11:18:47.475Z,955.17
2017-06-15T11:19:47.479Z,955.21
2017-06-15T11:20:47.482Z,955.18
2017-06-15T11:21:47.486Z,955.15
2017-06-15T11:22:47.492Z,955.15
2017-06-15T11:23:47.495Z,955.14
2017-06-15T11:24:47.499Z,955.12
2017-06-15T11:25:47.503Z,955.16
2017-06-15T11:26:47.507Z,955.12
2017-06-15T11:27:47.514Z,955.07
2017-06-15T11:28:47.513Z,955.03
2017-06-15T11:29:47.519Z,955.06
2017-06-15T11:30:47.523Z,955.03
2017-06-15T11:31:47.525Z,955.03
2017-06-15T11:32:47.529Z,955.03
2017-06-15T11:33:47.534Z,955.02
2017-06-15T11:34:47.538Z,955.09
2017-06-15T11:35:47.541Z,955.06
2017-06-15T11:36:47.545Z,955.14
2017-06-15T11:37:47.549Z,955.07
2017-06-15T11:38:47.551Z,955.1
2017-06-15T11:39:47.556Z,955.1
2017-06-15T11:40:47.560Z,955.09
2017-06-15T11:41:47.564Z,955.11
2017-06-15T11:42:47.568Z,955.14
2017-06-15T11:43:47.577Z,955.11
2017-06-15T11:44:47.576Z,955.07
2017-06-15T11:45:47.580Z,955.1
2017-06-15T11:46:47.582Z,955.12
2017-06-15T11:47:47.588Z,955.11
2017-06-15T11:48:47.592Z,955.07
2017-06-15T11:49:47.594Z,955.07
2017-06-15T11:50:47.602Z,955.01
2017-06-15T11:51:47.602Z,955.04
2017-06-15T11:52:47.624Z,954.92
2017-06-15T11:53:47.610Z,954.95
2017-06-15T11:54:47.627Z,954.94
2017-06-15T11:55:47.619Z,954.94
2017-06-15T11:56:47.624Z,954.92
2017-06-15T11:57:47.626Z,954.9
2017-06-15T11:58:47.631Z,955
2017-06-15T11:59:47.635Z,954.98
2017-06-15T12:00:47.663Z,954.88
2017-06-15T12:01:47.643Z,954.85
2017-06-15T12:02:47.646Z,954.89
2017-06-15T12:03:47.651Z,954.92
2017-06-15T12:04:47.655Z,954.84
2017-06-15T12:05:47.658Z,954.84
2017-06-15T12:06:47.663Z,954.92
2017-06-15T12:07:47.667Z,954.9
2017-06-15T12:08:47.670Z,954.85
2017-06-15T12:09:47.676Z,954.85
2017-06-15T12:10:47.680Z,954.86
2017-06-15T12:11:47.684Z,954.86
2017-06-15T12:12:47.686Z,954.83
2017-06-15T12:13:47.692Z,954.8
2017-06-15T12:14:47.697Z,954.81
2017-06-15T12:15:47.699Z,954.84
2017-06-15T12:16:47.703Z,954.83
2017-06-15T12:17:47.710Z,954.81
2017-06-15T12:18:47.714Z,954.81
2017-06-15T12:19:47.717Z,954.8
2017-06-15T12:20:47.722Z,954.82
2017-06-15T12:21:47.732Z,954.77
2017-06-15T12:22:47.739Z,954.75
2017-06-15T12:23:47.749Z,954.76
2017-06-15T12:24:47.739Z,954.73
2017-06-15T12:25:47.745Z,954.7
2017-06-15T12:26:47.747Z,954.71
2017-06-15T12:27:47.753Z,954.74
2017-06-15T12:28:47.759Z,954.77
2017-06-15T12:29:47.761Z,954.68
2017-06-15T12:30:47.767Z,954.66
2017-06-15T12:31:47.773Z,954.73